sensor_id;sensor_type;location;lat;lon;timestamp;temperature;humidity
60965;DHT22;46834;51.100;6.886;2022-10-29T00:00:51;17.60;52.20
60965;DHT22;46834;51.100;6.886;2022-10-29T00:03:18;17.60;52.40
60965;DHT22;46834;51.100;6.886;2022-10-29T00:05:57;17.60;52.20
60965;DHT22;46834;51.100;6.886;2022-10-29T00:08:25;17.60;52.50
60965;DHT22;46834;51.100;6.886;2022-10-29T00:10:51;17.60;52.20
60965;DHT22;46834;51.100;6.886;2022-10-29T00:13:17;17.60;52.20
60965;DHT22;46834;51.100;6.886;2022-10-29T00:15:43;17.60;52.30
60965;DHT22;46834;51.100;6.886;2022-10-29T00:18:09;17.60;52.30
60965;DHT22;46834;51.100;6.886;2022-10-29T00:20:34;17.60;52.40
60965;DHT22;46834;51.100;6.886;2022-10-29T00:23:00;17.60;52.40
60965;DHT22;46834;51.100;6.886;2022-10-29T00:25:26;17.60;52.50
60965;DHT22;46834;51.100;6.886;2022-10-29T00:27:51;17.70;52.50
60965;DHT22;46834;51.100;6.886;2022-10-29T00:30:17;17.70;52.50
60965;DHT22;46834;51.100;6.886;2022-10-29T00:32:43;17.70;52.50
60965;DHT22;46834;51.100;6.886;2022-10-29T00:35:08;17.70;52.50
60965;DHT22;46834;51.100;6.886;2022-10-29T00:37:34;17.70;52.60
60965;DHT22;46834;51.100;6.886;2022-10-29T00:40:00;17.70;52.60
60965;DHT22;46834;51.100;6.886;2022-10-29T00:42:26;17.70;52.70
60965;DHT22;46834;51.100;6.886;2022-10-29T00:44:51;17.70;52.70
60965;DHT22;46834;51.100;6.886;2022-10-29T00:47:27;17.70;52.80
60965;DHT22;46834;51.100;6.886;2022-10-29T00:50:09;17.70;52.80
60965;DHT22;46834;51.100;6.886;2022-10-29T00:52:40;17.70;52.90
60965;DHT22;46834;51.100;6.886;2022-10-29T00:55:10;17.70;52.80
60965;DHT22;46834;51.100;6.886;2022-10-29T00:57:42;17.60;52.70
60965;DHT22;46834;51.100;6.886;2022-10-29T01:00:16;17.60;52.70
60965;DHT22;46834;51.100;6.886;2022-10-29T01:02:43;17.60;52.80
60965;DHT22;46834;51.100;6.886;2022-10-29T01:05:12;17.50;52.60
60965;DHT22;46834;51.100;6.886;2022-10-29T01:07:43;17.50;52.70
60965;DHT22;46834;51.100;6.886;2022-10-29T01:10:09;17.50;52.70
60965;DHT22;46834;51.100;6.886;2022-10-29T01:13:00;17.40;52.60
60965;DHT22;46834;51.100;6.886;2022-10-29T01:16:06;17.40;53.00
60965;DHT22;46834;51.100;6.886;2022-10-29T01:18:59;17.40;52.90
60965;DHT22;46834;51.100;6.886;2022-10-29T01:40:27;17.30;53.10
60965;DHT22;46834;51.100;6.886;2022-10-29T01:43:59;17.30;53.00
60965;DHT22;46834;51.100;6.886;2022-10-29T01:46:16;17.30;53.00
60965;DHT22;46834;51.100;6.886;2022-10-29T01:48:48;17.20;53.10
60965;DHT22;46834;51.100;6.886;2022-10-29T01:51:21;17.20;52.80
60965;DHT22;46834;51.100;6.886;2022-10-29T01:53:51;17.20;52.90
60965;DHT22;46834;51.100;6.886;2022-10-29T01:56:18;17.20;52.80
60965;DHT22;46834;51.100;6.886;2022-10-29T01:58:47;17.20;52.80
60965;DHT22;46834;51.100;6.886;2022-10-29T02:06:42;17.10;53.00
60965;DHT22;46834;51.100;6.886;2022-10-29T02:09:24;17.10;52.80
60965;DHT22;46834;51.100;6.886;2022-10-29T02:12:19;17.10;53.10
60965;DHT22;46834;51.100;6.886;2022-10-29T02:15:12;17.10;53.10
60965;DHT22;46834;51.100;6.886;2022-10-29T02:17:48;17.10;53.00
60965;DHT22;46834;51.100;6.886;2022-10-29T02:20:14;17.10;52.90
60965;DHT22;46834;51.100;6.886;2022-10-29T02:22:41;17.10;52.90
60965;DHT22;46834;51.100;6.886;2022-10-29T02:25:07;17.10;53.00
60965;DHT22;46834;51.100;6.886;2022-10-29T02:27:34;17.10;53.00
60965;DHT22;46834;51.100;6.886;2022-10-29T02:29:59;17.10;53.00
60965;DHT22;46834;51.100;6.886;2022-10-29T02:32:25;17.10;53.00
60965;DHT22;46834;51.100;6.886;2022-10-29T02:34:51;17.10;53.00
60965;DHT22;46834;51.100;6.886;2022-10-29T02:37:16;17.10;53.00
60965;DHT22;46834;51.100;6.886;2022-10-29T02:39:42;17.10;53.10
60965;DHT22;46834;51.100;6.886;2022-10-29T02:42:08;17.10;53.10
60965;DHT22;46834;51.100;6.886;2022-10-29T02:44:33;17.10;53.10
60965;DHT22;46834;51.100;6.886;2022-10-29T02:46:59;17.10;53.10
60965;DHT22;46834;51.100;6.886;2022-10-29T02:49:25;17.00;53.00
60965;DHT22;46834;51.100;6.886;2022-10-29T02:51:50;17.00;53.00
60965;DHT22;46834;51.100;6.886;2022-10-29T02:54:16;17.00;53.10
60965;DHT22;46834;51.100;6.886;2022-10-29T02:56:42;17.00;53.10
60965;DHT22;46834;51.100;6.886;2022-10-29T02:59:08;17.00;53.10
60965;DHT22;46834;51.100;6.886;2022-10-29T03:01:33;17.00;53.10
60965;DHT22;46834;51.100;6.886;2022-10-29T03:03:59;17.00;53.10
60965;DHT22;46834;51.100;6.886;2022-10-29T03:06:25;17.00;53.10
60965;DHT22;46834;51.100;6.886;2022-10-29T03:08:50;17.00;53.20
60965;DHT22;46834;51.100;6.886;2022-10-29T03:11:16;17.00;53.20
60965;DHT22;46834;51.100;6.886;2022-10-29T03:13:42;16.90;53.10
60965;DHT22;46834;51.100;6.886;2022-10-29T03:16:08;16.90;53.10
60965;DHT22;46834;51.100;6.886;2022-10-29T03:18:33;16.90;53.10
60965;DHT22;46834;51.100;6.886;2022-10-29T03:20:59;16.90;53.10
60965;DHT22;46834;51.100;6.886;2022-10-29T03:23:25;16.90;53.10
60965;DHT22;46834;51.100;6.886;2022-10-29T03:25:54;16.90;53.10
60965;DHT22;46834;51.100;6.886;2022-10-29T03:28:21;16.90;53.30
60965;DHT22;46834;51.100;6.886;2022-10-29T03:30:48;16.90;53.20
60965;DHT22;46834;51.100;6.886;2022-10-29T03:33:14;16.80;53.20
60965;DHT22;46834;51.100;6.886;2022-10-29T03:35:40;16.80;53.20
60965;DHT22;46834;51.100;6.886;2022-10-29T03:38:06;16.80;53.20
60965;DHT22;46834;51.100;6.886;2022-10-29T03:40:32;16.70;53.20
60965;DHT22;46834;51.100;6.886;2022-10-29T03:42:58;16.70;53.20
60965;DHT22;46834;51.100;6.886;2022-10-29T03:45:23;16.70;53.20
60965;DHT22;46834;51.100;6.886;2022-10-29T03:47:50;16.70;53.20
60965;DHT22;46834;51.100;6.886;2022-10-29T03:50:15;16.60;53.20
60965;DHT22;46834;51.100;6.886;2022-10-29T03:52:41;16.60;53.20
60965;DHT22;46834;51.100;6.886;2022-10-29T03:55:07;16.60;53.30
60965;DHT22;46834;51.100;6.886;2022-10-29T03:57:33;16.50;53.20
60965;DHT22;46834;51.100;6.886;2022-10-29T03:59:59;16.50;53.30
60965;DHT22;46834;51.100;6.886;2022-10-29T04:02:29;16.50;53.30
60965;DHT22;46834;51.100;6.886;2022-10-29T04:04:55;16.50;53.40
60965;DHT22;46834;51.100;6.886;2022-10-29T04:07:20;16.40;53.30
60965;DHT22;46834;51.100;6.886;2022-10-29T04:09:46;16.40;53.40
60965;DHT22;46834;51.100;6.886;2022-10-29T04:12:12;16.40;53.40
60965;DHT22;46834;51.100;6.886;2022-10-29T04:14:37;16.40;53.50
60965;DHT22;46834;51.100;6.886;2022-10-29T04:17:03;16.30;53.50
60965;DHT22;46834;51.100;6.886;2022-10-29T04:19:29;16.30;53.50
60965;DHT22;46834;51.100;6.886;2022-10-29T04:21:55;16.30;53.50
60965;DHT22;46834;51.100;6.886;2022-10-29T04:24:20;16.30;53.60
60965;DHT22;46834;51.100;6.886;2022-10-29T04:26:46;16.30;53.60
60965;DHT22;46834;51.100;6.886;2022-10-29T04:29:12;16.30;53.60
60965;DHT22;46834;51.100;6.886;2022-10-29T04:31:37;16.30;53.70
60965;DHT22;46834;51.100;6.886;2022-10-29T04:34:03;16.20;53.60
60965;DHT22;46834;51.100;6.886;2022-10-29T04:36:29;16.30;53.70
60965;DHT22;46834;51.100;6.886;2022-10-29T04:38:55;16.30;53.70
60965;DHT22;46834;51.100;6.886;2022-10-29T04:41:20;16.30;53.70
60965;DHT22;46834;51.100;6.886;2022-10-29T04:43:46;16.30;53.80
60965;DHT22;46834;51.100;6.886;2022-10-29T04:46:12;16.30;53.70
60965;DHT22;46834;51.100;6.886;2022-10-29T04:48:37;16.30;53.80
60965;DHT22;46834;51.100;6.886;2022-10-29T04:51:03;16.30;53.80
60965;DHT22;46834;51.100;6.886;2022-10-29T04:53:29;16.30;53.80
60965;DHT22;46834;51.100;6.886;2022-10-29T04:55:59;16.30;53.80
60965;DHT22;46834;51.100;6.886;2022-10-29T04:58:26;16.30;53.90
60965;DHT22;46834;51.100;6.886;2022-10-29T05:00:52;16.30;53.80
60965;DHT22;46834;51.100;6.886;2022-10-29T05:03:18;16.30;54.50
60965;DHT22;46834;51.100;6.886;2022-10-29T05:05:44;16.30;53.90
60965;DHT22;46834;51.100;6.886;2022-10-29T05:08:10;16.30;53.90
60965;DHT22;46834;51.100;6.886;2022-10-29T05:10:38;16.30;53.90
60965;DHT22;46834;51.100;6.886;2022-10-29T05:13:10;16.30;54.00
60965;DHT22;46834;51.100;6.886;2022-10-29T05:15:36;16.30;54.10
60965;DHT22;46834;51.100;6.886;2022-10-29T05:18:04;16.30;53.90
60965;DHT22;46834;51.100;6.886;2022-10-29T05:20:30;16.30;53.90
60965;DHT22;46834;51.100;6.886;2022-10-29T05:23:00;16.30;53.90
60965;DHT22;46834;51.100;6.886;2022-10-29T05:25:32;16.30;54.00
60965;DHT22;46834;51.100;6.886;2022-10-29T05:28:03;16.30;54.00
60965;DHT22;46834;51.100;6.886;2022-10-29T05:30:31;16.30;54.00
60965;DHT22;46834;51.100;6.886;2022-10-29T05:32:57;16.30;53.90
60965;DHT22;46834;51.100;6.886;2022-10-29T05:35:23;16.30;53.90
60965;DHT22;46834;51.100;6.886;2022-10-29T05:37:52;16.30;53.90
60965;DHT22;46834;51.100;6.886;2022-10-29T05:40:20;16.30;54.00
60965;DHT22;46834;51.100;6.886;2022-10-29T05:42:46;16.30;53.90
60965;DHT22;46834;51.100;6.886;2022-10-29T05:45:12;16.30;53.90
60965;DHT22;46834;51.100;6.886;2022-10-29T05:47:38;16.30;53.90
60965;DHT22;46834;51.100;6.886;2022-10-29T05:50:04;16.30;53.90
60965;DHT22;46834;51.100;6.886;2022-10-29T05:52:30;16.30;53.90
60965;DHT22;46834;51.100;6.886;2022-10-29T05:54:55;16.30;53.90
60965;DHT22;46834;51.100;6.886;2022-10-29T05:57:21;16.20;54.40
60965;DHT22;46834;51.100;6.886;2022-10-29T05:59:47;16.20;53.80
60965;DHT22;46834;51.100;6.886;2022-10-29T06:02:12;16.20;53.80
60965;DHT22;46834;51.100;6.886;2022-10-29T06:04:38;16.20;53.80
60965;DHT22;46834;51.100;6.886;2022-10-29T06:07:03;16.10;53.70
60965;DHT22;46834;51.100;6.886;2022-10-29T06:09:29;16.10;53.70
60965;DHT22;46834;51.100;6.886;2022-10-29T06:11:55;16.10;53.80
60965;DHT22;46834;51.100;6.886;2022-10-29T06:14:21;16.10;53.90
60965;DHT22;46834;51.100;6.886;2022-10-29T06:16:47;16.10;54.00
60965;DHT22;46834;51.100;6.886;2022-10-29T06:19:13;16.00;53.90
60965;DHT22;46834;51.100;6.886;2022-10-29T06:21:39;16.00;54.00
60965;DHT22;46834;51.100;6.886;2022-10-29T06:24:05;16.00;54.10
60965;DHT22;46834;51.100;6.886;2022-10-29T06:26:31;16.00;54.10
60965;DHT22;46834;51.100;6.886;2022-10-29T06:28:56;16.00;54.10
60965;DHT22;46834;51.100;6.886;2022-10-29T06:31:22;16.00;54.20
60965;DHT22;46834;51.100;6.886;2022-10-29T06:33:47;16.00;54.20
60965;DHT22;46834;51.100;6.886;2022-10-29T06:36:13;16.00;54.20
60965;DHT22;46834;51.100;6.886;2022-10-29T06:38:39;16.00;54.20
60965;DHT22;46834;51.100;6.886;2022-10-29T06:41:04;16.10;54.30
60965;DHT22;46834;51.100;6.886;2022-10-29T06:43:30;16.00;54.20
60965;DHT22;46834;51.100;6.886;2022-10-29T06:45:56;16.00;54.20
60965;DHT22;46834;51.100;6.886;2022-10-29T06:48:21;16.00;54.20
60965;DHT22;46834;51.100;6.886;2022-10-29T06:50:47;16.00;54.20
60965;DHT22;46834;51.100;6.886;2022-10-29T06:53:14;16.00;54.20
60965;DHT22;46834;51.100;6.886;2022-10-29T06:55:40;16.00;54.20
60965;DHT22;46834;51.100;6.886;2022-10-29T06:58:10;16.10;54.30
60965;DHT22;46834;51.100;6.886;2022-10-29T07:00:38;16.10;54.40
60965;DHT22;46834;51.100;6.886;2022-10-29T07:03:05;16.10;54.40
60965;DHT22;46834;51.100;6.886;2022-10-29T07:05:32;16.10;54.30
60965;DHT22;46834;51.100;6.886;2022-10-29T07:08:00;16.20;54.40
60965;DHT22;46834;51.100;6.886;2022-10-29T07:10:29;16.10;54.20
60965;DHT22;46834;51.100;6.886;2022-10-29T07:12:56;16.10;54.20
60965;DHT22;46834;51.100;6.886;2022-10-29T07:15:23;16.10;54.20
60965;DHT22;46834;51.100;6.886;2022-10-29T07:18:05;16.10;54.20
60965;DHT22;46834;51.100;6.886;2022-10-29T07:20:35;16.20;54.40
60965;DHT22;46834;51.100;6.886;2022-10-29T07:23:03;16.20;54.30
60965;DHT22;46834;51.100;6.886;2022-10-29T07:25:30;16.20;54.20
60965;DHT22;46834;51.100;6.886;2022-10-29T07:28:26;16.20;54.30
60965;DHT22;46834;51.100;6.886;2022-10-29T07:30:56;16.20;54.50
60965;DHT22;46834;51.100;6.886;2022-10-29T07:33:23;16.20;54.30
60965;DHT22;46834;51.100;6.886;2022-10-29T07:35:49;16.20;54.30
60965;DHT22;46834;51.100;6.886;2022-10-29T07:38:15;16.20;54.40
60965;DHT22;46834;51.100;6.886;2022-10-29T07:40:48;16.20;54.40
60965;DHT22;46834;51.100;6.886;2022-10-29T07:43:15;16.30;54.60
60965;DHT22;46834;51.100;6.886;2022-10-29T07:45:43;16.30;54.40
60965;DHT22;46834;51.100;6.886;2022-10-29T07:48:10;16.30;54.40
60965;DHT22;46834;51.100;6.886;2022-10-29T07:50:37;16.30;54.40
60965;DHT22;46834;51.100;6.886;2022-10-29T07:53:05;16.40;54.50
60965;DHT22;46834;51.100;6.886;2022-10-29T07:55:31;16.40;54.50
60965;DHT22;46834;51.100;6.886;2022-10-29T07:57:59;16.40;54.50
60965;DHT22;46834;51.100;6.886;2022-10-29T08:00:44;16.50;54.60
60965;DHT22;46834;51.100;6.886;2022-10-29T08:03:11;16.50;54.80
60965;DHT22;46834;51.100;6.886;2022-10-29T08:05:37;16.60;54.70
60965;DHT22;46834;51.100;6.886;2022-10-29T08:08:04;16.60;54.70
60965;DHT22;46834;51.100;6.886;2022-10-29T08:10:31;16.60;54.70
60965;DHT22;46834;51.100;6.886;2022-10-29T08:13:00;16.70;54.70
60965;DHT22;46834;51.100;6.886;2022-10-29T08:15:28;16.70;54.70
60965;DHT22;46834;51.100;6.886;2022-10-29T08:17:55;16.80;54.70
60965;DHT22;46834;51.100;6.886;2022-10-29T08:20:23;16.80;54.60
60965;DHT22;46834;51.100;6.886;2022-10-29T08:22:50;16.80;54.60
60965;DHT22;46834;51.100;6.886;2022-10-29T08:25:16;16.90;54.60
60965;DHT22;46834;51.100;6.886;2022-10-29T08:27:42;16.90;54.60
60965;DHT22;46834;51.100;6.886;2022-10-29T08:30:10;16.90;54.60
60965;DHT22;46834;51.100;6.886;2022-10-29T08:32:44;17.00;54.70
60965;DHT22;46834;51.100;6.886;2022-10-29T08:35:11;17.10;54.80
60965;DHT22;46834;51.100;6.886;2022-10-29T08:37:41;17.10;54.70
60965;DHT22;46834;51.100;6.886;2022-10-29T08:40:22;17.10;54.60
60965;DHT22;46834;51.100;6.886;2022-10-29T08:45:54;17.30;54.70
60965;DHT22;46834;51.100;6.886;2022-10-29T08:48:35;17.30;54.70
60965;DHT22;46834;51.100;6.886;2022-10-29T08:51:19;17.40;54.70
60965;DHT22;46834;51.100;6.886;2022-10-29T08:54:01;17.50;54.90
60965;DHT22;46834;51.100;6.886;2022-10-29T08:56:31;17.70;55.20
60965;DHT22;46834;51.100;6.886;2022-10-29T08:59:23;17.70;55.00
60965;DHT22;46834;51.100;6.886;2022-10-29T09:01:51;17.90;55.00
60965;DHT22;46834;51.100;6.886;2022-10-29T09:15:27;18.30;54.30
60965;DHT22;46834;51.100;6.886;2022-10-29T09:21:06;18.50;54.10
60965;DHT22;46834;51.100;6.886;2022-10-29T09:24:03;18.50;54.20
60965;DHT22;46834;51.100;6.886;2022-10-29T09:26:59;18.60;53.90
60965;DHT22;46834;51.100;6.886;2022-10-29T09:35:10;18.70;53.80
60965;DHT22;46834;51.100;6.886;2022-10-29T09:37:48;18.70;53.90
60965;DHT22;46834;51.100;6.886;2022-10-29T09:43:16;18.80;53.80
60965;DHT22;46834;51.100;6.886;2022-10-29T09:45:57;18.90;53.80
60965;DHT22;46834;51.100;6.886;2022-10-29T09:51:53;18.90;53.70
60965;DHT22;46834;51.100;6.886;2022-10-29T09:54:27;19.00;53.80
60965;DHT22;46834;51.100;6.886;2022-10-29T09:56:55;19.00;53.80
60965;DHT22;46834;51.100;6.886;2022-10-29T09:59:26;19.00;53.80
60965;DHT22;46834;51.100;6.886;2022-10-29T10:01:58;19.10;53.90
60965;DHT22;46834;51.100;6.886;2022-10-29T10:04:30;19.20;53.90
60965;DHT22;46834;51.100;6.886;2022-10-29T10:07:08;19.20;53.70
60965;DHT22;46834;51.100;6.886;2022-10-29T10:09:58;19.30;53.80
60965;DHT22;46834;51.100;6.886;2022-10-29T10:12:28;19.40;53.50
60965;DHT22;46834;51.100;6.886;2022-10-29T10:21:11;19.50;53.20
60965;DHT22;46834;51.100;6.886;2022-10-29T10:23:47;19.50;53.10
60965;DHT22;46834;51.100;6.886;2022-10-29T10:32:13;19.60;53.00
60965;DHT22;46834;51.100;6.886;2022-10-29T10:34:38;19.60;53.20
60965;DHT22;46834;51.100;6.886;2022-10-29T10:39:38;19.60;53.10
60965;DHT22;46834;51.100;6.886;2022-10-29T10:42:29;19.60;53.10
60965;DHT22;46834;51.100;6.886;2022-10-29T10:45:12;19.60;53.00
60965;DHT22;46834;51.100;6.886;2022-10-29T10:47:41;19.60;53.10
60965;DHT22;46834;51.100;6.886;2022-10-29T10:50:31;19.60;53.00
60965;DHT22;46834;51.100;6.886;2022-10-29T10:53:01;19.60;52.80
60965;DHT22;46834;51.100;6.886;2022-10-29T10:55:31;19.60;53.00
60965;DHT22;46834;51.100;6.886;2022-10-29T11:01:05;19.60;52.90
60965;DHT22;46834;51.100;6.886;2022-10-29T11:06:38;19.60;52.70
60965;DHT22;46834;51.100;6.886;2022-10-29T11:11:58;19.60;52.80
60965;DHT22;46834;51.100;6.886;2022-10-29T11:14:32;19.60;52.70
60965;DHT22;46834;51.100;6.886;2022-10-29T11:17:24;19.50;52.60
60965;DHT22;46834;51.100;6.886;2022-10-29T11:20:25;19.60;52.60
60965;DHT22;46834;51.100;6.886;2022-10-29T11:26:05;19.60;52.70
60965;DHT22;46834;51.100;6.886;2022-10-29T11:31:35;19.70;52.80
60965;DHT22;46834;51.100;6.886;2022-10-29T11:34:22;19.70;52.80
60965;DHT22;46834;51.100;6.886;2022-10-29T11:36:59;19.90;52.80
60965;DHT22;46834;51.100;6.886;2022-10-29T11:39:32;19.90;52.90
60965;DHT22;46834;51.100;6.886;2022-10-29T11:42:08;20.00;53.10
60965;DHT22;46834;51.100;6.886;2022-10-29T11:44:39;20.10;53.20
60965;DHT22;46834;51.100;6.886;2022-10-29T11:53:40;20.50;52.80
60965;DHT22;46834;51.100;6.886;2022-10-29T12:05:29;20.90;52.10
60965;DHT22;46834;51.100;6.886;2022-10-29T12:08:45;20.90;52.00
60965;DHT22;46834;51.100;6.886;2022-10-29T12:11:33;21.00;51.80
60965;DHT22;46834;51.100;6.886;2022-10-29T12:20:23;20.90;51.70
60965;DHT22;46834;51.100;6.886;2022-10-29T12:23:11;20.90;51.80
60965;DHT22;46834;51.100;6.886;2022-10-29T12:34:35;21.00;51.90
60965;DHT22;46834;51.100;6.886;2022-10-29T12:37:14;21.00;51.70
60965;DHT22;46834;51.100;6.886;2022-10-29T12:39:51;21.00;51.90
60965;DHT22;46834;51.100;6.886;2022-10-29T12:42:25;21.10;52.00
60965;DHT22;46834;51.100;6.886;2022-10-29T12:53:30;21.30;51.40
60965;DHT22;46834;51.100;6.886;2022-10-29T12:56:01;21.40;51.30
60965;DHT22;46834;51.100;6.886;2022-10-29T12:58:48;21.40;51.60
60965;DHT22;46834;51.100;6.886;2022-10-29T13:09:22;21.40;51.00
60965;DHT22;46834;51.100;6.886;2022-10-29T13:11:57;21.40;51.00
60965;DHT22;46834;51.100;6.886;2022-10-29T13:14:43;21.40;51.00
60965;DHT22;46834;51.100;6.886;2022-10-29T13:17:29;21.40;51.00
60965;DHT22;46834;51.100;6.886;2022-10-29T13:22:33;21.40;51.20
60965;DHT22;46834;51.100;6.886;2022-10-29T13:30:35;21.40;51.00
60965;DHT22;46834;51.100;6.886;2022-10-29T13:35:55;21.40;50.90
60965;DHT22;46834;51.100;6.886;2022-10-29T13:41:16;21.30;50.90
60965;DHT22;46834;51.100;6.886;2022-10-29T13:47:04;21.30;50.90
60965;DHT22;46834;51.100;6.886;2022-10-29T13:49:45;21.30;50.80
60965;DHT22;46834;51.100;6.886;2022-10-29T13:52:18;21.30;51.00
60965;DHT22;46834;51.100;6.886;2022-10-29T13:54:58;21.30;50.70
60965;DHT22;46834;51.100;6.886;2022-10-29T14:00:18;21.30;50.50
60965;DHT22;46834;51.100;6.886;2022-10-29T14:05:28;21.20;50.30
60965;DHT22;46834;51.100;6.886;2022-10-29T14:08:14;21.20;50.30
60965;DHT22;46834;51.100;6.886;2022-10-29T14:10:47;21.20;50.10
60965;DHT22;46834;51.100;6.886;2022-10-29T14:13:28;21.10;50.30
60965;DHT22;46834;51.100;6.886;2022-10-29T14:16:08;21.10;50.40
60965;DHT22;46834;51.100;6.886;2022-10-29T14:18:43;21.10;50.00
60965;DHT22;46834;51.100;6.886;2022-10-29T14:21:26;21.10;50.10
60965;DHT22;46834;51.100;6.886;2022-10-29T14:24:19;21.10;50.00
60965;DHT22;46834;51.100;6.886;2022-10-29T14:26:45;21.10;50.00
60965;DHT22;46834;51.100;6.886;2022-10-29T14:29:21;21.00;50.20
60965;DHT22;46834;51.100;6.886;2022-10-29T14:34:35;21.00;49.90
60965;DHT22;46834;51.100;6.886;2022-10-29T14:37:04;21.00;50.20
60965;DHT22;46834;51.100;6.886;2022-10-29T14:39:53;21.00;50.20
60965;DHT22;46834;51.100;6.886;2022-10-29T14:42:37;21.00;50.20
60965;DHT22;46834;51.100;6.886;2022-10-29T14:45:16;21.00;49.90
60965;DHT22;46834;51.100;6.886;2022-10-29T14:47:51;21.00;50.00
60965;DHT22;46834;51.100;6.886;2022-10-29T14:50:22;21.00;50.00
60965;DHT22;46834;51.100;6.886;2022-10-29T14:52:58;21.00;50.00
60965;DHT22;46834;51.100;6.886;2022-10-29T14:55:32;21.00;50.00
60965;DHT22;46834;51.100;6.886;2022-10-29T15:00:33;20.90;49.90
60965;DHT22;46834;51.100;6.886;2022-10-29T15:03:02;20.90;49.90
60965;DHT22;46834;51.100;6.886;2022-10-29T15:05:33;20.90;49.90
60965;DHT22;46834;51.100;6.886;2022-10-29T15:08:04;20.90;49.80
60965;DHT22;46834;51.100;6.886;2022-10-29T15:10:48;20.80;49.80
60965;DHT22;46834;51.100;6.886;2022-10-29T15:15:55;20.80;49.80
60965;DHT22;46834;51.100;6.886;2022-10-29T15:18:24;20.80;50.00
60965;DHT22;46834;51.100;6.886;2022-10-29T15:20:52;20.70;50.00
60965;DHT22;46834;51.100;6.886;2022-10-29T15:23:27;20.70;50.00
60965;DHT22;46834;51.100;6.886;2022-10-29T15:26:04;20.70;49.80
60965;DHT22;46834;51.100;6.886;2022-10-29T15:28:39;20.70;49.80
60965;DHT22;46834;51.100;6.886;2022-10-29T15:31:06;20.70;49.90
60965;DHT22;46834;51.100;6.886;2022-10-29T15:33:44;20.70;50.00
60965;DHT22;46834;51.100;6.886;2022-10-29T15:36:10;20.60;50.00
60965;DHT22;46834;51.100;6.886;2022-10-29T15:46:29;20.50;50.00
60965;DHT22;46834;51.100;6.886;2022-10-29T15:48:59;20.50;49.90
60965;DHT22;46834;51.100;6.886;2022-10-29T15:51:27;20.40;50.00
60965;DHT22;46834;51.100;6.886;2022-10-29T15:53:56;20.40;50.00
60965;DHT22;46834;51.100;6.886;2022-10-29T15:56:27;20.40;50.00
60965;DHT22;46834;51.100;6.886;2022-10-29T15:58:55;20.30;50.00
60965;DHT22;46834;51.100;6.886;2022-10-29T16:01:23;20.30;50.10
60965;DHT22;46834;51.100;6.886;2022-10-29T16:03:49;20.20;50.00
60965;DHT22;46834;51.100;6.886;2022-10-29T16:06:15;20.20;50.00
60965;DHT22;46834;51.100;6.886;2022-10-29T16:08:42;20.20;50.10
60965;DHT22;46834;51.100;6.886;2022-10-29T16:11:13;20.10;50.00
60965;DHT22;46834;51.100;6.886;2022-10-29T16:13:40;20.10;50.10
60965;DHT22;46834;51.100;6.886;2022-10-29T16:16:12;20.00;50.10
60965;DHT22;46834;51.100;6.886;2022-10-29T16:18:40;20.00;50.10
60965;DHT22;46834;51.100;6.886;2022-10-29T16:21:06;20.00;50.10
60965;DHT22;46834;51.100;6.886;2022-10-29T16:23:33;19.90;50.00
60965;DHT22;46834;51.100;6.886;2022-10-29T16:26:01;19.90;50.10
60965;DHT22;46834;51.100;6.886;2022-10-29T16:28:27;19.90;50.10
60965;DHT22;46834;51.100;6.886;2022-10-29T16:30:54;19.90;50.10
60965;DHT22;46834;51.100;6.886;2022-10-29T16:33:22;19.80;50.10
60965;DHT22;46834;51.100;6.886;2022-10-29T16:35:48;19.80;50.10
60965;DHT22;46834;51.100;6.886;2022-10-29T16:38:13;19.80;50.10
60965;DHT22;46834;51.100;6.886;2022-10-29T16:40:40;19.70;50.00
60965;DHT22;46834;51.100;6.886;2022-10-29T16:43:07;19.70;50.00
60965;DHT22;46834;51.100;6.886;2022-10-29T16:45:33;19.70;50.00
60965;DHT22;46834;51.100;6.886;2022-10-29T16:47:59;19.70;50.10
60965;DHT22;46834;51.100;6.886;2022-10-29T16:50:28;19.60;50.00
60965;DHT22;46834;51.100;6.886;2022-10-29T16:53:06;19.70;50.10
60965;DHT22;46834;51.100;6.886;2022-10-29T16:55:38;19.60;50.10
60965;DHT22;46834;51.100;6.886;2022-10-29T16:58:06;19.60;50.10
60965;DHT22;46834;51.100;6.886;2022-10-29T17:00:35;19.50;50.00
60965;DHT22;46834;51.100;6.886;2022-10-29T17:03:02;19.50;50.00
60965;DHT22;46834;51.100;6.886;2022-10-29T17:05:29;19.40;50.00
60965;DHT22;46834;51.100;6.886;2022-10-29T17:07:55;19.40;50.00
60965;DHT22;46834;51.100;6.886;2022-10-29T17:10:21;19.40;50.00
60965;DHT22;46834;51.100;6.886;2022-10-29T17:12:47;19.40;50.00
60965;DHT22;46834;51.100;6.886;2022-10-29T17:15:13;19.40;50.00
60965;DHT22;46834;51.100;6.886;2022-10-29T17:17:39;19.30;50.00
60965;DHT22;46834;51.100;6.886;2022-10-29T17:20:06;19.30;50.00
60965;DHT22;46834;51.100;6.886;2022-10-29T17:22:32;19.30;50.00
60965;DHT22;46834;51.100;6.886;2022-10-29T17:24:58;19.30;50.00
60965;DHT22;46834;51.100;6.886;2022-10-29T17:27:23;19.20;49.90
60965;DHT22;46834;51.100;6.886;2022-10-29T17:29:49;19.20;49.90
60965;DHT22;46834;51.100;6.886;2022-10-29T17:32:15;19.20;49.90
60965;DHT22;46834;51.100;6.886;2022-10-29T17:34:41;19.20;49.90
60965;DHT22;46834;51.100;6.886;2022-10-29T17:37:07;19.20;49.90
60965;DHT22;46834;51.100;6.886;2022-10-29T17:39:33;19.10;49.90
60965;DHT22;46834;51.100;6.886;2022-10-29T17:41:59;19.10;49.90
60965;DHT22;46834;51.100;6.886;2022-10-29T17:44:25;19.10;49.90
60965;DHT22;46834;51.100;6.886;2022-10-29T17:46:52;19.00;49.80
60965;DHT22;46834;51.100;6.886;2022-10-29T17:49:18;19.00;49.80
60965;DHT22;46834;51.100;6.886;2022-10-29T17:51:44;19.00;49.80
60965;DHT22;46834;51.100;6.886;2022-10-29T17:54:13;19.00;49.80
60965;DHT22;46834;51.100;6.886;2022-10-29T17:56:40;19.00;49.80
60965;DHT22;46834;51.100;6.886;2022-10-29T17:59:06;19.00;49.80
60965;DHT22;46834;51.100;6.886;2022-10-29T18:01:32;18.90;49.70
60965;DHT22;46834;51.100;6.886;2022-10-29T18:04:03;18.90;49.70
60965;DHT22;46834;51.100;6.886;2022-10-29T18:06:30;18.90;49.70
60965;DHT22;46834;51.100;6.886;2022-10-29T18:08:56;18.90;49.70
60965;DHT22;46834;51.100;6.886;2022-10-29T18:11:23;18.90;49.70
60965;DHT22;46834;51.100;6.886;2022-10-29T18:13:49;18.80;49.70
60965;DHT22;46834;51.100;6.886;2022-10-29T18:16:17;18.80;49.60
60965;DHT22;46834;51.100;6.886;2022-10-29T18:18:48;18.80;49.70
60965;DHT22;46834;51.100;6.886;2022-10-29T18:21:17;18.70;49.60
60965;DHT22;46834;51.100;6.886;2022-10-29T18:23:44;18.70;49.60
60965;DHT22;46834;51.100;6.886;2022-10-29T18:26:28;18.70;49.60
60965;DHT22;46834;51.100;6.886;2022-10-29T18:28:56;18.70;49.60
60965;DHT22;46834;51.100;6.886;2022-10-29T18:31:25;18.70;49.60
60965;DHT22;46834;51.100;6.886;2022-10-29T18:33:53;18.60;49.60
60965;DHT22;46834;51.100;6.886;2022-10-29T18:36:19;18.60;49.60
60965;DHT22;46834;51.100;6.886;2022-10-29T18:38:53;18.60;49.60